sensor_id;sensor_type;location;lat;lon;timestamp;P1;durP1;ratioP1;P2;durP2;ratioP2
17193;SDS011;8713;48.388;10.928;2022-09-16T06:20:35;3.83;;;2.78;;
17193;SDS011;8713;48.388;10.928;2022-09-16T06:21:44;4.40;;;3.15;;
17193;SDS011;8713;48.388;10.928;2022-09-16T06:22:54;4.15;;;2.97;;
17193;SDS011;8713;48.388;10.928;2022-09-16T06:24:04;4.25;;;3.00;;
17193;SDS011;8713;48.388;10.928;2022-09-16T06:25:18;6.47;;;3.10;;
17193;SDS011;8713;48.388;10.928;2022-09-16T06:26:27;5.15;;;3.30;;
17193;SDS011;8713;48.388;10.928;2022-09-16T06:27:37;4.80;;;3.30;;
17193;SDS011;8713;48.388;10.928;2022-09-16T06:28:47;5.35;;;3.28;;
17193;SDS011;8713;48.388;10.928;2022-09-16T06:29:56;5.05;;;3.35;;
17193;SDS011;8713;48.388;10.928;2022-09-16T06:31:07;4.97;;;3.42;;
17193;SDS011;8713;48.388;10.928;2022-09-16T06:32:20;4.85;;;3.40;;
17193;SDS011;8713;48.388;10.928;2022-09-16T06:33:29;6.93;;;3.63;;
17193;SDS011;8713;48.388;10.928;2022-09-16T06:34:39;6.35;;;3.58;;
17193;SDS011;8713;48.388;10.928;2022-09-16T06:35:48;5.45;;;3.03;;
17193;SDS011;8713;48.388;10.928;2022-09-16T06:36:59;7.13;;;3.60;;
17193;SDS011;8713;48.388;10.928;2022-09-16T06:38:08;4.68;;;3.17;;
17193;SDS011;8713;48.388;10.928;2022-09-16T06:39:18;4.78;;;3.33;;
17193;SDS011;8713;48.388;10.928;2022-09-16T06:40:27;6.53;;;3.42;;
17193;SDS011;8713;48.388;10.928;2022-09-16T06:41:37;6.53;;;3.67;;
17193;SDS011;8713;48.388;10.928;2022-09-16T06:42:47;4.80;;;3.47;;
17193;SDS011;8713;48.388;10.928;2022-09-16T06:43:56;6.85;;;3.40;;
17193;SDS011;8713;48.388;10.928;2022-09-16T06:45:06;5.05;;;3.63;;
17193;SDS011;8713;48.388;10.928;2022-09-16T06:46:17;6.38;;;3.70;;
17193;SDS011;8713;48.388;10.928;2022-09-16T06:47:32;6.03;;;3.58;;
17193;SDS011;8713;48.388;10.928;2022-09-16T06:48:42;6.47;;;3.70;;
17193;SDS011;8713;48.388;10.928;2022-09-16T06:49:53;5.05;;;3.42;;
17193;SDS011;8713;48.388;10.928;2022-09-16T06:51:04;6.07;;;3.45;;
17193;SDS011;8713;48.388;10.928;2022-09-16T06:52:16;5.80;;;3.72;;
17193;SDS011;8713;48.388;10.928;2022-09-16T06:53:25;5.72;;;3.78;;
17193;SDS011;8713;48.388;10.928;2022-09-16T06:54:35;6.70;;;3.85;;
17193;SDS011;8713;48.388;10.928;2022-09-16T06:55:45;5.95;;;3.80;;
17193;SDS011;8713;48.388;10.928;2022-09-16T06:56:54;5.65;;;3.35;;
17193;SDS011;8713;48.388;10.928;2022-09-16T06:58:04;5.32;;;3.60;;
17193;SDS011;8713;48.388;10.928;2022-09-16T06:59:13;7.50;;;3.42;;
17193;SDS011;8713;48.388;10.928;2022-09-16T07:00:23;5.65;;;3.63;;
17193;SDS011;8713;48.388;10.928;2022-09-16T07:01:32;4.45;;;2.90;;
17193;SDS011;8713;48.388;10.928;2022-09-16T07:02:43;5.57;;;3.47;;
17193;SDS011;8713;48.388;10.928;2022-09-16T07:03:53;5.05;;;3.28;;
17193;SDS011;8713;48.388;10.928;2022-09-16T07:05:04;7.05;;;3.90;;
17193;SDS011;8713;48.388;10.928;2022-09-16T07:06:14;6.00;;;3.67;;
17193;SDS011;8713;48.388;10.928;2022-09-16T07:07:24;7.63;;;3.58;;
17193;SDS011;8713;48.388;10.928;2022-09-16T07:08:38;5.10;;;3.47;;
17193;SDS011;8713;48.388;10.928;2022-09-16T07:09:49;5.85;;;3.50;;
17193;SDS011;8713;48.388;10.928;2022-09-16T07:11:00;6.07;;;3.72;;
17193;SDS011;8713;48.388;10.928;2022-09-16T07:12:21;7.55;;;3.80;;
17193;SDS011;8713;48.388;10.928;2022-09-16T07:13:31;9.15;;;3.92;;
17193;SDS011;8713;48.388;10.928;2022-09-16T07:14:40;8.15;;;4.03;;
17193;SDS011;8713;48.388;10.928;2022-09-16T07:15:49;6.80;;;4.03;;
17193;SDS011;8713;48.388;10.928;2022-09-16T07:16:59;6.85;;;4.13;;
17193;SDS011;8713;48.388;10.928;2022-09-16T07:18:09;7.13;;;3.58;;
17193;SDS011;8713;48.388;10.928;2022-09-16T07:19:19;5.78;;;3.42;;
17193;SDS011;8713;48.388;10.928;2022-09-16T07:20:28;5.97;;;3.67;;
17193;SDS011;8713;48.388;10.928;2022-09-16T07:21:38;5.20;;;3.65;;
17193;SDS011;8713;48.388;10.928;2022-09-16T07:22:49;7.75;;;3.83;;
17193;SDS011;8713;48.388;10.928;2022-09-16T07:24:01;5.95;;;3.80;;
17193;SDS011;8713;48.388;10.928;2022-09-16T07:25:12;5.32;;;3.72;;
17193;SDS011;8713;48.388;10.928;2022-09-16T07:26:22;7.45;;;3.97;;
17193;SDS011;8713;48.388;10.928;2022-09-16T07:27:34;7.82;;;3.92;;
17193;SDS011;8713;48.388;10.928;2022-09-16T07:28:44;5.38;;;3.65;;
17193;SDS011;8713;48.388;10.928;2022-09-16T07:29:54;6.00;;;3.70;;
17193;SDS011;8713;48.388;10.928;2022-09-16T07:31:06;5.60;;;3.90;;
17193;SDS011;8713;48.388;10.928;2022-09-16T07:32:20;6.18;;;3.72;;
17193;SDS011;8713;48.388;10.928;2022-09-16T07:33:30;7.95;;;3.78;;
17193;SDS011;8713;48.388;10.928;2022-09-16T07:34:41;8.05;;;3.63;;
17193;SDS011;8713;48.388;10.928;2022-09-16T07:35:50;5.80;;;3.60;;
17193;SDS011;8713;48.388;10.928;2022-09-16T07:36:59;7.15;;;3.88;;
17193;SDS011;8713;48.388;10.928;2022-09-16T07:38:09;7.18;;;4.45;;
17193;SDS011;8713;48.388;10.928;2022-09-16T07:39:19;6.93;;;4.63;;
17193;SDS011;8713;48.388;10.928;2022-09-16T07:40:29;7.93;;;4.05;;
17193;SDS011;8713;48.388;10.928;2022-09-16T07:41:39;5.78;;;4.13;;
17193;SDS011;8713;48.388;10.928;2022-09-16T07:42:50;6.40;;;4.20;;
17193;SDS011;8713;48.388;10.928;2022-09-16T07:44:00;7.85;;;4.20;;
17193;SDS011;8713;48.388;10.928;2022-09-16T07:45:10;5.47;;;3.88;;
17193;SDS011;8713;48.388;10.928;2022-09-16T07:46:20;6.72;;;3.97;;
17193;SDS011;8713;48.388;10.928;2022-09-16T07:47:29;6.07;;;3.88;;
17193;SDS011;8713;48.388;10.928;2022-09-16T07:48:39;5.90;;;3.75;;
17193;SDS011;8713;48.388;10.928;2022-09-16T07:49:48;5.22;;;3.63;;
17193;SDS011;8713;48.388;10.928;2022-09-16T07:51:07;7.10;;;4.00;;
17193;SDS011;8713;48.388;10.928;2022-09-16T07:52:19;7.68;;;4.25;;
17193;SDS011;8713;48.388;10.928;2022-09-16T07:53:28;6.45;;;3.80;;
17193;SDS011;8713;48.388;10.928;2022-09-16T07:54:38;11.70;;;3.78;;
17193;SDS011;8713;48.388;10.928;2022-09-16T07:55:48;6.72;;;3.97;;
17193;SDS011;8713;48.388;10.928;2022-09-16T07:56:58;5.90;;;3.67;;
17193;SDS011;8713;48.388;10.928;2022-09-16T07:58:07;7.85;;;3.55;;
17193;SDS011;8713;48.388;10.928;2022-09-16T07:59:17;5.55;;;3.53;;
17193;SDS011;8713;48.388;10.928;2022-09-16T08:00:27;4.75;;;3.22;;
17193;SDS011;8713;48.388;10.928;2022-09-16T08:01:37;7.82;;;3.95;;
17193;SDS011;8713;48.388;10.928;2022-09-16T08:02:46;5.25;;;3.55;;
17193;SDS011;8713;48.388;10.928;2022-09-16T08:03:56;5.35;;;3.63;;
17193;SDS011;8713;48.388;10.928;2022-09-16T08:05:06;6.40;;;3.35;;
17193;SDS011;8713;48.388;10.928;2022-09-16T08:06:18;7.68;;;4.07;;
17193;SDS011;8713;48.388;10.928;2022-09-16T08:07:30;5.90;;;3.58;;
17193;SDS011;8713;48.388;10.928;2022-09-16T08:08:39;4.55;;;3.30;;
17193;SDS011;8713;48.388;10.928;2022-09-16T08:09:49;5.78;;;3.35;;
17193;SDS011;8713;48.388;10.928;2022-09-16T08:10:59;6.93;;;3.63;;
17193;SDS011;8713;48.388;10.928;2022-09-16T08:12:09;7.75;;;3.67;;
17193;SDS011;8713;48.388;10.928;2022-09-16T08:13:18;6.72;;;4.05;;
17193;SDS011;8713;48.388;10.928;2022-09-16T08:14:28;7.80;;;3.85;;
17193;SDS011;8713;48.388;10.928;2022-09-16T08:15:37;8.88;;;4.32;;
17193;SDS011;8713;48.388;10.928;2022-09-16T08:16:46;6.95;;;3.97;;
17193;SDS011;8713;48.388;10.928;2022-09-16T08:17:58;7.10;;;3.95;;
17193;SDS011;8713;48.388;10.928;2022-09-16T08:19:08;7.22;;;3.65;;
17193;SDS011;8713;48.388;10.928;2022-09-16T08:20:17;5.85;;;3.40;;
17193;SDS011;8713;48.388;10.928;2022-09-16T08:21:27;7.75;;;3.90;;
17193;SDS011;8713;48.388;10.928;2022-09-16T08:22:37;6.93;;;4.07;;
17193;SDS011;8713;48.388;10.928;2022-09-16T08:23:46;8.07;;;3.90;;
17193;SDS011;8713;48.388;10.928;2022-09-16T08:24:56;7.20;;;3.72;;
17193;SDS011;8713;48.388;10.928;2022-09-16T08:26:06;4.43;;;3.38;;
17193;SDS011;8713;48.388;10.928;2022-09-16T08:27:17;4.43;;;3.10;;
17193;SDS011;8713;48.388;10.928;2022-09-16T08:28:27;4.55;;;2.92;;
17193;SDS011;8713;48.388;10.928;2022-09-16T08:29:37;4.57;;;2.88;;
17193;SDS011;8713;48.388;10.928;2022-09-16T08:30:46;4.32;;;2.83;;
17193;SDS011;8713;48.388;10.928;2022-09-16T08:31:56;5.55;;;3.42;;
17193;SDS011;8713;48.388;10.928;2022-09-16T08:33:06;5.13;;;2.95;;
17193;SDS011;8713;48.388;10.928;2022-09-16T08:34:15;7.35;;;3.53;;
17193;SDS011;8713;48.388;10.928;2022-09-16T08:35:25;5.63;;;3.47;;
17193;SDS011;8713;48.388;10.928;2022-09-16T08:36:34;6.10;;;2.95;;
17193;SDS011;8713;48.388;10.928;2022-09-16T08:37:44;6.00;;;3.15;;
17193;SDS011;8713;48.388;10.928;2022-09-16T08:38:54;5.65;;;2.90;;
17193;SDS011;8713;48.388;10.928;2022-09-16T08:40:04;5.53;;;2.85;;
17193;SDS011;8713;48.388;10.928;2022-09-16T08:41:53;5.13;;;2.47;;
17193;SDS011;8713;48.388;10.928;2022-09-16T08:45:11;6.20;;;3.55;;
17193;SDS011;8713;48.388;10.928;2022-09-16T08:46:55;5.88;;;3.28;;
17193;SDS011;8713;48.388;10.928;2022-09-16T08:49:44;5.85;;;3.25;;
17193;SDS011;8713;48.388;10.928;2022-09-16T08:50:55;5.10;;;2.95;;
17193;SDS011;8713;48.388;10.928;2022-09-16T08:53:42;5.57;;;2.85;;
17193;SDS011;8713;48.388;10.928;2022-09-16T08:55:03;6.30;;;2.90;;
17193;SDS011;8713;48.388;10.928;2022-09-16T08:56:29;6.03;;;2.92;;
17193;SDS011;8713;48.388;10.928;2022-09-16T08:57:41;4.93;;;3.17;;
17193;SDS011;8713;48.388;10.928;2022-09-16T08:59:26;4.95;;;2.60;;
17193;SDS011;8713;48.388;10.928;2022-09-16T09:00:39;4.20;;;2.55;;
17193;SDS011;8713;48.388;10.928;2022-09-16T09:01:51;4.30;;;2.50;;
17193;SDS011;8713;48.388;10.928;2022-09-16T09:03:38;5.90;;;2.17;;
17193;SDS011;8713;48.388;10.928;2022-09-16T09:04:49;4.03;;;1.95;;
17193;SDS011;8713;48.388;10.928;2022-09-16T09:05:59;4.38;;;2.17;;
17193;SDS011;8713;48.388;10.928;2022-09-16T09:07:25;2.80;;;1.70;;
17193;SDS011;8713;48.388;10.928;2022-09-16T09:08:55;5.28;;;1.95;;
17193;SDS011;8713;48.388;10.928;2022-09-16T09:12:06;3.58;;;2.25;;
17193;SDS011;8713;48.388;10.928;2022-09-16T09:13:37;6.63;;;2.10;;
17193;SDS011;8713;48.388;10.928;2022-09-16T09:19:58;2.33;;;1.77;;
17193;SDS011;8713;48.388;10.928;2022-09-16T09:21:31;2.08;;;1.52;;
17193;SDS011;8713;48.388;10.928;2022-09-16T09:28:04;2.95;;;1.58;;
17193;SDS011;8713;48.388;10.928;2022-09-16T09:30:00;3.38;;;1.52;;
17193;SDS011;8713;48.388;10.928;2022-09-16T09:32:59;4.78;;;1.67;;
17193;SDS011;8713;48.388;10.928;2022-09-16T09:40:39;4.80;;;1.92;;
17193;SDS011;8713;48.388;10.928;2022-09-16T09:41:57;3.33;;;1.85;;
17193;SDS011;8713;48.388;10.928;2022-09-16T09:44:48;2.90;;;1.60;;
17193;SDS011;8713;48.388;10.928;2022-09-16T09:46:06;4.90;;;1.75;;
17193;SDS011;8713;48.388;10.928;2022-09-16T09:47:40;2.75;;;1.55;;
17193;SDS011;8713;48.388;10.928;2022-09-16T09:48:54;2.67;;;1.52;;
17193;SDS011;8713;48.388;10.928;2022-09-16T09:50:12;4.35;;;1.70;;
17193;SDS011;8713;48.388;10.928;2022-09-16T09:52:10;4.00;;;1.48;;
17193;SDS011;8713;48.388;10.928;2022-09-16T09:54:29;2.47;;;1.50;;
17193;SDS011;8713;48.388;10.928;2022-09-16T09:55:42;6.13;;;1.88;;
17193;SDS011;8713;48.388;10.928;2022-09-16T09:56:53;2.95;;;1.80;;
17193;SDS011;8713;48.388;10.928;2022-09-16T09:58:47;3.22;;;1.63;;
17193;SDS011;8713;48.388;10.928;2022-09-16T10:00:15;3.78;;;1.70;;
17193;SDS011;8713;48.388;10.928;2022-09-16T10:01:26;2.97;;;1.60;;
17193;SDS011;8713;48.388;10.928;2022-09-16T10:02:39;4.10;;;1.63;;
17193;SDS011;8713;48.388;10.928;2022-09-16T10:03:51;4.70;;;2.15;;
17193;SDS011;8713;48.388;10.928;2022-09-16T10:05:03;4.07;;;1.70;;
17193;SDS011;8713;48.388;10.928;2022-09-16T10:06:15;2.67;;;1.40;;
17193;SDS011;8713;48.388;10.928;2022-09-16T10:07:26;2.50;;;1.42;;
17193;SDS011;8713;48.388;10.928;2022-09-16T10:08:47;4.53;;;1.75;;
17193;SDS011;8713;48.388;10.928;2022-09-16T10:10:00;4.30;;;1.73;;
17193;SDS011;8713;48.388;10.928;2022-09-16T10:11:22;2.35;;;1.42;;
17193;SDS011;8713;48.388;10.928;2022-09-16T10:12:38;2.50;;;1.40;;
17193;SDS011;8713;48.388;10.928;2022-09-16T10:13:49;3.25;;;1.58;;
17193;SDS011;8713;48.388;10.928;2022-09-16T10:15:02;3.65;;;1.65;;
17193;SDS011;8713;48.388;10.928;2022-09-16T10:16:13;3.97;;;1.55;;
17193;SDS011;8713;48.388;10.928;2022-09-16T10:17:29;2.72;;;1.60;;
17193;SDS011;8713;48.388;10.928;2022-09-16T10:18:40;6.65;;;1.90;;
17193;SDS011;8713;48.388;10.928;2022-09-16T10:19:50;4.38;;;1.73;;
17193;SDS011;8713;48.388;10.928;2022-09-16T10:21:07;3.50;;;1.55;;
17193;SDS011;8713;48.388;10.928;2022-09-16T10:22:29;3.15;;;1.90;;
17193;SDS011;8713;48.388;10.928;2022-09-16T10:23:51;2.92;;;1.63;;
17193;SDS011;8713;48.388;10.928;2022-09-16T10:25:03;3.50;;;1.77;;
17193;SDS011;8713;48.388;10.928;2022-09-16T10:26:27;2.67;;;1.65;;
17193;SDS011;8713;48.388;10.928;2022-09-16T10:27:36;3.45;;;1.52;;
17193;SDS011;8713;48.388;10.928;2022-09-16T10:28:57;2.08;;;1.45;;
17193;SDS011;8713;48.388;10.928;2022-09-16T10:30:19;3.08;;;1.42;;
17193;SDS011;8713;48.388;10.928;2022-09-16T10:31:35;2.33;;;1.30;;
17193;SDS011;8713;48.388;10.928;2022-09-16T10:34:35;1.77;;;0.85;;
17193;SDS011;8713;48.388;10.928;2022-09-16T10:35:57;2.95;;;1.30;;
17193;SDS011;8713;48.388;10.928;2022-09-16T10:38:21;3.78;;;1.20;;
17193;SDS011;8713;48.388;10.928;2022-09-16T10:39:32;2.03;;;1.20;;
17193;SDS011;8713;48.388;10.928;2022-09-16T10:40:54;2.30;;;1.45;;
17193;SDS011;8713;48.388;10.928;2022-09-16T10:42:16;2.33;;;1.20;;
17193;SDS011;8713;48.388;10.928;2022-09-16T10:43:30;2.72;;;1.30;;
17193;SDS011;8713;48.388;10.928;2022-09-16T10:44:40;2.35;;;1.20;;
17193;SDS011;8713;48.388;10.928;2022-09-16T10:45:50;1.40;;;1.05;;
17193;SDS011;8713;48.388;10.928;2022-09-16T10:47:02;2.30;;;1.27;;
17193;SDS011;8713;48.388;10.928;2022-09-16T10:48:17;2.83;;;1.10;;
17193;SDS011;8713;48.388;10.928;2022-09-16T10:51:06;1.88;;;1.30;;
17193;SDS011;8713;48.388;10.928;2022-09-16T10:52:43;2.90;;;1.40;;
17193;SDS011;8713;48.388;10.928;2022-09-16T10:53:56;2.25;;;1.50;;
17193;SDS011;8713;48.388;10.928;2022-09-16T10:56:45;2.20;;;1.20;;
17193;SDS011;8713;48.388;10.928;2022-09-16T10:58:07;1.55;;;1.08;;
17193;SDS011;8713;48.388;10.928;2022-09-16T10:59:24;2.15;;;1.15;;
17193;SDS011;8713;48.388;10.928;2022-09-16T11:00:43;3.53;;;1.20;;
17193;SDS011;8713;48.388;10.928;2022-09-16T11:08:57;2.28;;;1.40;;
17193;SDS011;8713;48.388;10.928;2022-09-16T11:10:17;2.55;;;1.50;;
17193;SDS011;8713;48.388;10.928;2022-09-16T11:12:28;2.85;;;1.60;;
17193;SDS011;8713;48.388;10.928;2022-09-16T11:15:26;1.70;;;1.27;;
17193;SDS011;8713;48.388;10.928;2022-09-16T11:17:26;1.90;;;1.38;;
17193;SDS011;8713;48.388;10.928;2022-09-16T11:20:38;3.08;;;1.45;;
17193;SDS011;8713;48.388;10.928;2022-09-16T11:24:01;2.28;;;1.42;;
17193;SDS011;8713;48.388;10.928;2022-09-16T11:29:01;2.47;;;1.40;;
17193;SDS011;8713;48.388;10.928;2022-09-16T11:30:20;2.90;;;1.65;;
17193;SDS011;8713;48.388;10.928;2022-09-16T11:34:44;1.42;;;1.00;;
17193;SDS011;8713;48.388;10.928;2022-09-16T11:37:01;2.83;;;1.30;;
17193;SDS011;8713;48.388;10.928;2022-09-16T11:41:02;3.63;;;1.00;;
17193;SDS011;8713;48.388;10.928;2022-09-16T11:42:29;1.52;;;1.10;;
17193;SDS011;8713;48.388;10.928;2022-09-16T11:53:08;1.60;;;1.10;;
17193;SDS011;8713;48.388;10.928;2022-09-16T11:56:34;1.70;;;1.10;;
17193;SDS011;8713;48.388;10.928;2022-09-16T11:57:48;1.80;;;1.20;;
17193;SDS011;8713;48.388;10.928;2022-09-16T12:00:26;2.33;;;1.10;;
17193;SDS011;8713;48.388;10.928;2022-09-16T12:01:44;1.30;;;1.05;;
17193;SDS011;8713;48.388;10.928;2022-09-16T12:03:40;2.88;;;1.10;;
17193;SDS011;8713;48.388;10.928;2022-09-16T12:05:06;1.95;;;1.33;;
17193;SDS011;8713;48.388;10.928;2022-09-16T12:07:05;2.50;;;1.30;;
17193;SDS011;8713;48.388;10.928;2022-09-16T12:10:19;2.30;;;1.13;;
17193;SDS011;8713;48.388;10.928;2022-09-16T12:11:34;2.95;;;1.05;;
17193;SDS011;8713;48.388;10.928;2022-09-16T12:12:51;2.45;;;1.23;;
17193;SDS011;8713;48.388;10.928;2022-09-16T12:15:28;2.22;;;1.17;;
17193;SDS011;8713;48.388;10.928;2022-09-16T12:16:44;2.47;;;1.30;;
17193;SDS011;8713;48.388;10.928;2022-09-16T12:18:10;1.38;;;1.10;;
17193;SDS011;8713;48.388;10.928;2022-09-16T12:19:35;5.10;;;1.60;;
17193;SDS011;8713;48.388;10.928;2022-09-16T12:20:53;1.27;;;0.95;;
17193;SDS011;8713;48.388;10.928;2022-09-16T12:24:20;1.92;;;1.20;;
17193;SDS011;8713;48.388;10.928;2022-09-16T12:25:27;1.38;;;1.10;;
17193;SDS011;8713;48.388;10.928;2022-09-16T12:26:59;3.10;;;1.10;;
17193;SDS011;8713;48.388;10.928;2022-09-16T12:28:34;1.85;;;1.20;;
17193;SDS011;8713;48.388;10.928;2022-09-16T12:30:33;1.33;;;1.00;;
17193;SDS011;8713;48.388;10.928;2022-09-16T12:31:36;1.92;;;1.27;;
17193;SDS011;8713;48.388;10.928;2022-09-16T12:34:53;1.75;;;1.27;;
17193;SDS011;8713;48.388;10.928;2022-09-16T12:38:44;2.30;;;1.50;;
17193;SDS011;8713;48.388;10.928;2022-09-16T12:39:54;2.05;;;1.60;;
17193;SDS011;8713;48.388;10.928;2022-09-16T12:41:21;3.85;;;1.48;;
17193;SDS011;8713;48.388;10.928;2022-09-16T12:43:10;2.45;;;1.85;;
17193;SDS011;8713;48.388;10.928;2022-09-16T12:48:26;2.45;;;1.63;;
17193;SDS011;8713;48.388;10.928;2022-09-16T13:02:28;3.08;;;1.40;;
17193;SDS011;8713;48.388;10.928;2022-09-16T13:03:46;3.65;;;1.38;;
17193;SDS011;8713;48.388;10.928;2022-09-16T13:05:51;4.18;;;1.58;;
17193;SDS011;8713;48.388;10.928;2022-09-16T13:06:43;2.80;;;1.70;;
17193;SDS011;8713;48.388;10.928;2022-09-16T13:08:02;6.40;;;1.38;;
17193;SDS011;8713;48.388;10.928;2022-09-16T13:09:18;2.28;;;1.38;;
17193;SDS011;8713;48.388;10.928;2022-09-16T13:10:44;2.35;;;1.40;;
17193;SDS011;8713;48.388;10.928;2022-09-16T13:11:55;2.05;;;1.45;;
17193;SDS011;8713;48.388;10.928;2022-09-16T13:13:18;2.55;;;1.60;;
17193;SDS011;8713;48.388;10.928;2022-09-16T13:14:49;4.60;;;1.60;;
17193;SDS011;8713;48.388;10.928;2022-09-16T13:16:02;4.45;;;1.35;;
17193;SDS011;8713;48.388;10.928;2022-09-16T13:17:13;2.15;;;1.30;;
17193;SDS011;8713;48.388;10.928;2022-09-16T13:18:24;3.00;;;1.50;;
17193;SDS011;8713;48.388;10.928;2022-09-16T13:20:59;3.13;;;1.35;;
17193;SDS011;8713;48.388;10.928;2022-09-16T13:22:17;1.70;;;1.40;;
17193;SDS011;8713;48.388;10.928;2022-09-16T13:23:46;2.28;;;1.23;;
17193;SDS011;8713;48.388;10.928;2022-09-16T13:26:39;3.75;;;1.38;;
17193;SDS011;8713;48.388;10.928;2022-09-16T13:28:00;1.67;;;1.08;;
17193;SDS011;8713;48.388;10.928;2022-09-16T13:30:45;3.17;;;1.63;;
17193;SDS011;8713;48.388;10.928;2022-09-16T13:31:55;2.47;;;1.05;;
17193;SDS011;8713;48.388;10.928;2022-09-16T13:34:17;3.45;;;1.10;;
17193;SDS011;8713;48.388;10.928;2022-09-16T13:36:39;2.28;;;1.35;;
17193;SDS011;8713;48.388;10.928;2022-09-16T13:37:49;3.47;;;1.23;;
17193;SDS011;8713;48.388;10.928;2022-09-16T13:39:05;5.40;;;1.52;;
17193;SDS011;8713;48.388;10.928;2022-09-16T13:40:25;2.83;;;1.20;;
17193;SDS011;8713;48.388;10.928;2022-09-16T13:41:43;4.75;;;1.80;;
17193;SDS011;8713;48.388;10.928;2022-09-16T13:45:48;3.83;;;1.75;;
17193;SDS011;8713;48.388;10.928;2022-09-16T13:47:29;3.90;;;1.50;;
17193;SDS011;8713;48.388;10.928;2022-09-16T13:48:43;4.32;;;1.50;;
17193;SDS011;8713;48.388;10.928;2022-09-16T13:50:19;4.95;;;1.90;;
17193;SDS011;8713;48.388;10.928;2022-09-16T13:51:29;3.08;;;1.30;;
17193;SDS011;8713;48.388;10.928;2022-09-16T13:52:41;2.22;;;1.30;;
17193;SDS011;8713;48.388;10.928;2022-09-16T13:53:51;3.05;;;1.30;;
17193;SDS011;8713;48.388;10.928;2022-09-16T13:55:02;2.72;;;1.50;;
17193;SDS011;8713;48.388;10.928;2022-09-16T13:56:29;2.35;;;1.20;;
17193;SDS011;8713;48.388;10.928;2022-09-16T13:58:19;3.35;;;1.20;;
17193;SDS011;8713;48.388;10.928;2022-09-16T14:01:01;2.55;;;1.48;;
17193;SDS011;8713;48.388;10.928;2022-09-16T14:04:11;4.40;;;1.52;;
17193;SDS011;8713;48.388;10.928;2022-09-16T14:05:37;3.28;;;1.40;;
17193;SDS011;8713;48.388;10.928;2022-09-16T14:07:08;3.20;;;1.30;;
17193;SDS011;8713;48.388;10.928;2022-09-16T14:13:15;3.08;;;1.30;;
17193;SDS011;8713;48.388;10.928;2022-09-16T14:14:27;2.38;;;1.25;;
17193;SDS011;8713;48.388;10.928;2022-09-16T14:15:47;2.00;;;1.20;;
17193;SDS011;8713;48.388;10.928;2022-09-16T14:17:13;3.55;;;1.40;;
17193;SDS011;8713;48.388;10.928;2022-09-16T14:18:32;3.58;;;1.55;;
17193;SDS011;8713;48.388;10.928;2022-09-16T14:19:43;3.00;;;1.40;;
17193;SDS011;8713;48.388;10.928;2022-09-16T14:22:14;3.67;;;1.48;;
17193;SDS011;8713;48.388;10.928;2022-09-16T14:23:25;2.92;;;1.40;;
17193;SDS011;8713;48.388;10.928;2022-09-16T14:24:35;5.63;;;1.98;;
17193;SDS011;8713;48.388;10.928;2022-09-16T14:25:47;3.80;;;1.75;;
17193;SDS011;8713;48.388;10.928;2022-09-16T14:26:56;2.30;;;1.45;;
17193;SDS011;8713;48.388;10.928;2022-09-16T14:28:24;2.65;;;1.40;;
17193;SDS011;8713;48.388;10.928;2022-09-16T14:29:35;2.40;;;1.45;;
17193;SDS011;8713;48.388;10.928;2022-09-16T14:30:49;4.72;;;1.70;;
17193;SDS011;8713;48.388;10.928;2022-09-16T14:32:03;2.67;;;1.35;;
17193;SDS011;8713;48.388;10.928;2022-09-16T14:33:13;4.80;;;1.60;;
17193;SDS011;8713;48.388;10.928;2022-09-16T14:35:34;5.55;;;1.80;;
17193;SDS011;8713;48.388;10.928;2022-09-16T14:36:44;3.17;;;1.60;;
17193;SDS011;8713;48.388;10.928;2022-09-16T14:37:55;2.25;;;1.40;;
17193;SDS011;8713;48.388;10.928;2022-09-16T14:39:09;2.72;;;1.52;;
17193;SDS011;8713;48.388;10.928;2022-09-16T14:40:22;1.83;;;1.35;;
17193;SDS011;8713;48.388;10.928;2022-09-16T14:41:43;3.40;;;1.70;;
17193;SDS011;8713;48.388;10.928;2022-09-16T14:43:07;3.00;;;1.83;;
17193;SDS011;8713;48.388;10.928;2022-09-16T14:45:46;3.45;;;1.85;;
17193;SDS011;8713;48.388;10.928;2022-09-16T14:47:01;3.10;;;1.70;;
17193;SDS011;8713;48.388;10.928;2022-09-16T14:48:32;2.95;;;2.00;;
17193;SDS011;8713;48.388;10.928;2022-09-16T14:49:45;3.40;;;1.60;;
17193;SDS011;8713;48.388;10.928;2022-09-16T14:50:55;4.22;;;1.80;;
17193;SDS011;8713;48.388;10.928;2022-09-16T14:52:15;3.53;;;1.90;;
17193;SDS011;8713;48.388;10.928;2022-09-16T14:53:33;4.90;;;1.80;;
17193;SDS011;8713;48.388;10.928;2022-09-16T14:54:45;3.67;;;2.08;;
17193;SDS011;8713;48.388;10.928;2022-09-16T14:55:55;3.80;;;1.73;;
17193;SDS011;8713;48.388;10.928;2022-09-16T14:57:05;2.85;;;1.77;;
17193;SDS011;8713;48.388;10.928;2022-09-16T14:58:15;2.63;;;1.70;;
17193;SDS011;8713;48.388;10.928;2022-09-16T14:59:33;3.10;;;1.77;;
17193;SDS011;8713;48.388;10.928;2022-09-16T15:00:48;2.53;;;1.65;;
17193;SDS011;8713;48.388;10.928;2022-09-16T15:03:38;3.60;;;2.00;;
17193;SDS011;8713;48.388;10.928;2022-09-16T15:06:35;3.40;;;1.65;;
17193;SDS011;8713;48.388;10.928;2022-09-16T15:07:50;3.65;;;1.58;;
17193;SDS011;8713;48.388;10.928;2022-09-16T15:09:02;3.38;;;1.77;;
17193;SDS011;8713;48.388;10.928;2022-09-16T15:10:24;3.28;;;1.70;;
17193;SDS011;8713;48.388;10.928;2022-09-16T15:11:43;5.75;;;2.22;;
17193;SDS011;8713;48.388;10.928;2022-09-16T15:12:56;3.85;;;2.00;;
17193;SDS011;8713;48.388;10.928;2022-09-16T15:14:09;2.72;;;1.42;;
17193;SDS011;8713;48.388;10.928;2022-09-16T15:15:20;4.80;;;1.90;;
17193;SDS011;8713;48.388;10.928;2022-09-16T15:16:32;2.42;;;1.60;;
17193;SDS011;8713;48.388;10.928;2022-09-16T15:17:42;4.38;;;1.60;;
17193;SDS011;8713;48.388;10.928;2022-09-16T15:18:55;5.88;;;2.00;;
17193;SDS011;8713;48.388;10.928;2022-09-16T15:20:23;5.05;;;1.63;;
17193;SDS011;8713;48.388;10.928;2022-09-16T15:21:35;2.50;;;1.70;;
17193;SDS011;8713;48.388;10.928;2022-09-16T15:22:46;2.15;;;1.50;;
17193;SDS011;8713;48.388;10.928;2022-09-16T15:23:56;3.85;;;1.50;;
17193;SDS011;8713;48.388;10.928;2022-09-16T15:25:16;2.53;;;1.55;;
17193;SDS011;8713;48.388;10.928;2022-09-16T15:26:42;3.78;;;1.52;;
17193;SDS011;8713;48.388;10.928;2022-09-16T15:28:06;4.82;;;1.98;;
17193;SDS011;8713;48.388;10.928;2022-09-16T15:30:42;3.83;;;1.50;;
17193;SDS011;8713;48.388;10.928;2022-09-16T15:32:05;4.03;;;1.60;;
17193;SDS011;8713;48.388;10.928;2022-09-16T15:33:34;2.25;;;1.58;;
17193;SDS011;8713;48.388;10.928;2022-09-16T15:34:45;3.53;;;1.63;;
17193;SDS011;8713;48.388;10.928;2022-09-16T15:35:54;2.33;;;1.80;;
17193;SDS011;8713;48.388;10.928;2022-09-16T15:37:05;2.58;;;1.80;;
17193;SDS011;8713;48.388;10.928;2022-09-16T15:38:41;2.10;;;1.48;;
17193;SDS011;8713;48.388;10.928;2022-09-16T15:39:50;2.10;;;1.52;;
17193;SDS011;8713;48.388;10.928;2022-09-16T15:41:00;3.13;;;1.98;;
17193;SDS011;8713;48.388;10.928;2022-09-16T15:42:17;3.78;;;1.90;;
17193;SDS011;8713;48.388;10.928;2022-09-16T15:43:34;5.40;;;1.80;;
17193;SDS011;8713;48.388;10.928;2022-09-16T15:44:54;2.30;;;1.70;;
17193;SDS011;8713;48.388;10.928;2022-09-16T15:46:13;3.05;;;1.65;;
17193;SDS011;8713;48.388;10.928;2022-09-16T15:47:37;3.25;;;1.85;;
17193;SDS011;8713;48.388;10.928;2022-09-16T15:48:57;4.28;;;1.63;;
17193;SDS011;8713;48.388;10.928;2022-09-16T15:50:09;2.35;;;1.58;;
17193;SDS011;8713;48.388;10.928;2022-09-16T15:51:31;3.63;;;1.90;;
17193;SDS011;8713;48.388;10.928;2022-09-16T15:55:35;3.22;;;2.05;;
17193;SDS011;8713;48.388;10.928;2022-09-16T15:58:16;5.97;;;1.90;;
17193;SDS011;8713;48.388;10.928;2022-09-16T15:59:55;1.88;;;1.60;;
17193;SDS011;8713;48.388;10.928;2022-09-16T16:02:49;4.03;;;1.95;;
17193;SDS011;8713;48.388;10.928;2022-09-16T16:04:04;2.75;;;1.75;;
17193;SDS011;8713;48.388;10.928;2022-09-16T16:05:20;5.70;;;1.88;;
17193;SDS011;8713;48.388;10.928;2022-09-16T16:06:53;4.18;;;1.80;;
17193;SDS011;8713;48.388;10.928;2022-09-16T16:08:09;5.72;;;1.92;;
17193;SDS011;8713;48.388;10.928;2022-09-16T16:10:34;3.60;;;2.30;;